KLBL/LBL METAR and TAF weather

Enter ICAO airport designator
Station Type Date Time Source
KLBL METAR 2019/09/21 03:56 UTC NOAA

KLBL 210356Z AUTO 18015KT 10SM CLR 22/19 A2991 RMK AO2 SLP099 T02170194


Station Type Date Time Source
KLBL Decoded METAR 2019/09/21 03:56 UTC NOAA

Liberal, Liberal Municipal Airport, KS, United States (KLBL) 37-03N 100-58W
Sep 20, 2019 - 11:56 PM EDT / 2019.09.21 0356 UTC
Wind: from the S (180 degrees) at 17 MPH (15 KT):0
Visibility: 10 mile(s):0
Sky conditions: clear
Temperature: 71.1 F (21.7 C)
Dew Point: 66.9 F (19.4 C)
Relative Humidity: 86%
Pressure (altimeter): 29.91 in. Hg (1012 hPa)
ob: KLBL 210356Z AUTO 18015KT 10SM CLR 22/19 A2991 RMK AO2 SLP099 T02170194
cycle: 4

Station Type Date Time Source
KLBL TAF 2019/09/20 18:39 UTC NOAA

TAF KLBL 201736Z 2018/2118 17015G23KT P6SM SCT150

Example: see airport list